Ana Sayfa
METAR-TAF:

METAR-TAF

Havaalanları :

Aransas County Airport

Rockport, Teksas, Amerika Birleşik Devletleri

Enlem: 28-05-01N, Boylam: 097-02-47W, yükseklik: 7 m

Güncel hava durumu gözlemi

Rapor saat 18:53 UTC de 48 dakika önce yapıldı.
Rüzgar güneydan 6 kt
Sıcaklık 26°C
Nem 74%
Basınç 1019 hPa
Görüş mesafesi: 11.3 km
1100 ft yükseklikte parçalı çok bulutlu
1500 ft yükseklikte çok bulutlu

METAR: KRKP 181853Z AUTO 19006KT 7SM BKN011 OVC015 26/21 A3010 RMK AO2 LTG DSNT N AND NE SLP195 T02610211

Saat: 13:41 (19:41 UTC)


TAF: eksik

4.000'den fazla havaalanı için hava durumu gözlemleri ve tahminleri (METAR ve TAF raporları).

Kullanılabilir istasyonlar harita üzerinde sarı ve kırmızı noktalarla gösterilir.

İstasyonun adını görmek için fareyi noktanın üzerinde gezdirin.

Sonrasında hava gözlem ve tahminlerini görmek için tıklayın.

Haritayı değiştirmek için: yaklaştırmak için siyah artı işaretli yeşil düğmeye ve uzaklaştırmak için de eksi işaretli düğmeye hızla tıklayın; bitişik haritalar için yeşil okları kullanın.


METAR-TAF: